sensor_id;sensor_type;location;lat;lon;timestamp;temperature;humidity
11599;DHT22;5855;48.840;9.188;2022-07-03T00:02:25;17.60;99.90
11599;DHT22;5855;48.840;9.188;2022-07-03T00:04:51;17.60;99.90
11599;DHT22;5855;48.840;9.188;2022-07-03T00:07:18;17.50;99.90
11599;DHT22;5855;48.840;9.188;2022-07-03T00:09:45;17.50;99.90
11599;DHT22;5855;48.840;9.188;2022-07-03T00:12:12;17.60;99.90
11599;DHT22;5855;48.840;9.188;2022-07-03T00:14:40;17.60;99.90
11599;DHT22;5855;48.840;9.188;2022-07-03T00:17:07;17.60;99.90
11599;DHT22;5855;48.840;9.188;2022-07-03T00:19:34;17.50;99.90
11599;DHT22;5855;48.840;9.188;2022-07-03T00:22:03;17.60;99.90
11599;DHT22;5855;48.840;9.188;2022-07-03T00:24:33;17.60;99.90
11599;DHT22;5855;48.840;9.188;2022-07-03T00:27:02;17.60;99.90
11599;DHT22;5855;48.840;9.188;2022-07-03T00:29:34;17.70;99.90
11599;DHT22;5855;48.840;9.188;2022-07-03T00:32:06;17.60;99.90
11599;DHT22;5855;48.840;9.188;2022-07-03T00:34:35;17.70;99.90
11599;DHT22;5855;48.840;9.188;2022-07-03T00:37:02;17.60;99.90
11599;DHT22;5855;48.840;9.188;2022-07-03T00:39:30;17.60;99.90
11599;DHT22;5855;48.840;9.188;2022-07-03T00:42:02;17.60;99.90
11599;DHT22;5855;48.840;9.188;2022-07-03T00:44:30;17.50;99.90
11599;DHT22;5855;48.840;9.188;2022-07-03T00:47:04;17.50;99.90
11599;DHT22;5855;48.840;9.188;2022-07-03T00:49:33;17.50;99.90
11599;DHT22;5855;48.840;9.188;2022-07-03T00:52:03;17.50;99.90
11599;DHT22;5855;48.840;9.188;2022-07-03T00:54:33;17.40;99.90
11599;DHT22;5855;48.840;9.188;2022-07-03T00:57:00;17.40;99.90
11599;DHT22;5855;48.840;9.188;2022-07-03T00:59:27;17.40;99.90
11599;DHT22;5855;48.840;9.188;2022-07-03T01:02:01;17.40;99.90
11599;DHT22;5855;48.840;9.188;2022-07-03T01:04:39;17.40;99.90
11599;DHT22;5855;48.840;9.188;2022-07-03T01:07:21;17.30;99.90
11599;DHT22;5855;48.840;9.188;2022-07-03T01:09:55;17.30;99.90
11599;DHT22;5855;48.840;9.188;2022-07-03T01:12:36;17.30;99.90
11599;DHT22;5855;48.840;9.188;2022-07-03T01:15:10;17.30;99.90
11599;DHT22;5855;48.840;9.188;2022-07-03T01:17:38;17.30;99.90
11599;DHT22;5855;48.840;9.188;2022-07-03T01:20:07;17.30;99.90
11599;DHT22;5855;48.840;9.188;2022-07-03T01:22:35;17.30;99.90
11599;DHT22;5855;48.840;9.188;2022-07-03T01:25:21;17.40;99.90
11599;DHT22;5855;48.840;9.188;2022-07-03T01:28:07;17.30;99.90
11599;DHT22;5855;48.840;9.188;2022-07-03T01:30:37;17.30;99.90
11599;DHT22;5855;48.840;9.188;2022-07-03T01:33:06;17.20;99.90
11599;DHT22;5855;48.840;9.188;2022-07-03T01:35:35;17.20;99.90
11599;DHT22;5855;48.840;9.188;2022-07-03T01:38:05;17.10;99.90
11599;DHT22;5855;48.840;9.188;2022-07-03T01:40:35;17.10;99.90
11599;DHT22;5855;48.840;9.188;2022-07-03T01:43:05;17.10;99.90
11599;DHT22;5855;48.840;9.188;2022-07-03T01:45:36;17.00;99.90
11599;DHT22;5855;48.840;9.188;2022-07-03T01:48:05;17.00;99.90
11599;DHT22;5855;48.840;9.188;2022-07-03T01:50:32;17.00;99.90
11599;DHT22;5855;48.840;9.188;2022-07-03T01:53:01;17.10;99.90
11599;DHT22;5855;48.840;9.188;2022-07-03T01:55:33;17.10;99.90
11599;DHT22;5855;48.840;9.188;2022-07-03T01:58:01;17.00;99.90
11599;DHT22;5855;48.840;9.188;2022-07-03T02:00:30;17.00;99.90
11599;DHT22;5855;48.840;9.188;2022-07-03T02:02:59;17.00;99.90
11599;DHT22;5855;48.840;9.188;2022-07-03T02:05:31;17.00;99.90
11599;DHT22;5855;48.840;9.188;2022-07-03T02:08:15;17.00;99.90
11599;DHT22;5855;48.840;9.188;2022-07-03T02:10:55;17.00;99.90
11599;DHT22;5855;48.840;9.188;2022-07-03T02:13:28;16.90;99.90
11599;DHT22;5855;48.840;9.188;2022-07-03T02:15:58;16.90;99.90
11599;DHT22;5855;48.840;9.188;2022-07-03T02:18:27;16.90;99.90
11599;DHT22;5855;48.840;9.188;2022-07-03T02:21:07;16.80;99.90
11599;DHT22;5855;48.840;9.188;2022-07-03T02:23:42;16.80;99.90
11599;DHT22;5855;48.840;9.188;2022-07-03T02:26:13;16.80;99.90
11599;DHT22;5855;48.840;9.188;2022-07-03T02:28:56;16.80;99.90
11599;DHT22;5855;48.840;9.188;2022-07-03T02:31:27;16.80;99.90
11599;DHT22;5855;48.840;9.188;2022-07-03T02:33:57;16.70;99.90
11599;DHT22;5855;48.840;9.188;2022-07-03T02:36:28;16.70;99.90
11599;DHT22;5855;48.840;9.188;2022-07-03T02:38:57;16.70;99.90
11599;DHT22;5855;48.840;9.188;2022-07-03T02:41:29;16.80;99.90
11599;DHT22;5855;48.840;9.188;2022-07-03T02:44:00;16.80;99.90
11599;DHT22;5855;48.840;9.188;2022-07-03T02:46:38;16.80;99.90
11599;DHT22;5855;48.840;9.188;2022-07-03T02:49:29;16.80;99.90
11599;DHT22;5855;48.840;9.188;2022-07-03T02:52:12;16.80;99.90
11599;DHT22;5855;48.840;9.188;2022-07-03T02:54:44;16.80;99.90
11599;DHT22;5855;48.840;9.188;2022-07-03T02:57:13;16.80;99.90
11599;DHT22;5855;48.840;9.188;2022-07-03T02:59:55;16.70;99.90
11599;DHT22;5855;48.840;9.188;2022-07-03T03:05:34;16.70;99.90
11599;DHT22;5855;48.840;9.188;2022-07-03T03:08:16;16.70;99.90
11599;DHT22;5855;48.840;9.188;2022-07-03T03:10:47;16.70;99.90
11599;DHT22;5855;48.840;9.188;2022-07-03T03:13:15;16.70;99.90
11599;DHT22;5855;48.840;9.188;2022-07-03T03:15:53;16.70;99.90
11599;DHT22;5855;48.840;9.188;2022-07-03T03:18:22;16.60;99.90
11599;DHT22;5855;48.840;9.188;2022-07-03T03:20:58;16.60;99.90
11599;DHT22;5855;48.840;9.188;2022-07-03T03:23:33;16.60;99.90
11599;DHT22;5855;48.840;9.188;2022-07-03T03:26:01;16.50;99.90
11599;DHT22;5855;48.840;9.188;2022-07-03T03:28:28;16.50;99.90
11599;DHT22;5855;48.840;9.188;2022-07-03T03:30:56;16.50;99.90
11599;DHT22;5855;48.840;9.188;2022-07-03T03:33:23;16.50;99.90
11599;DHT22;5855;48.840;9.188;2022-07-03T03:35:50;16.50;99.90
11599;DHT22;5855;48.840;9.188;2022-07-03T03:38:18;16.50;99.90
11599;DHT22;5855;48.840;9.188;2022-07-03T03:40:46;16.50;99.90
11599;DHT22;5855;48.840;9.188;2022-07-03T03:43:12;16.50;99.90
11599;DHT22;5855;48.840;9.188;2022-07-03T03:45:39;16.50;99.90
11599;DHT22;5855;48.840;9.188;2022-07-03T03:48:06;16.50;99.90
11599;DHT22;5855;48.840;9.188;2022-07-03T03:50:33;16.50;99.90
11599;DHT22;5855;48.840;9.188;2022-07-03T03:53:00;16.50;99.90
11599;DHT22;5855;48.840;9.188;2022-07-03T03:55:28;16.50;99.90
11599;DHT22;5855;48.840;9.188;2022-07-03T03:57:55;16.50;99.90
11599;DHT22;5855;48.840;9.188;2022-07-03T04:00:22;16.50;99.90
11599;DHT22;5855;48.840;9.188;2022-07-03T04:02:49;16.50;99.90
11599;DHT22;5855;48.840;9.188;2022-07-03T04:05:16;16.50;99.90
11599;DHT22;5855;48.840;9.188;2022-07-03T04:07:42;16.50;99.90
11599;DHT22;5855;48.840;9.188;2022-07-03T04:10:09;16.50;99.90
11599;DHT22;5855;48.840;9.188;2022-07-03T04:12:38;16.60;99.90
11599;DHT22;5855;48.840;9.188;2022-07-03T04:15:05;16.60;99.90
11599;DHT22;5855;48.840;9.188;2022-07-03T04:17:32;16.60;99.90
11599;DHT22;5855;48.840;9.188;2022-07-03T04:19:59;16.60;99.90
11599;DHT22;5855;48.840;9.188;2022-07-03T04:22:26;16.60;99.90
11599;DHT22;5855;48.840;9.188;2022-07-03T04:24:53;16.60;99.90
11599;DHT22;5855;48.840;9.188;2022-07-03T04:27:19;16.70;99.90
11599;DHT22;5855;48.840;9.188;2022-07-03T04:29:48;16.70;99.90
11599;DHT22;5855;48.840;9.188;2022-07-03T04:32:14;16.70;99.90
11599;DHT22;5855;48.840;9.188;2022-07-03T04:34:41;16.70;99.90
11599;DHT22;5855;48.840;9.188;2022-07-03T04:37:08;16.80;99.90
11599;DHT22;5855;48.840;9.188;2022-07-03T04:39:35;16.80;99.90
11599;DHT22;5855;48.840;9.188;2022-07-03T04:42:02;16.90;99.90
11599;DHT22;5855;48.840;9.188;2022-07-03T04:44:29;16.90;99.90
11599;DHT22;5855;48.840;9.188;2022-07-03T04:46:57;17.00;99.90
11599;DHT22;5855;48.840;9.188;2022-07-03T04:49:26;17.00;99.90
11599;DHT22;5855;48.840;9.188;2022-07-03T04:51:53;17.10;99.90
11599;DHT22;5855;48.840;9.188;2022-07-03T04:54:21;17.10;99.90
11599;DHT22;5855;48.840;9.188;2022-07-03T04:56:48;17.10;99.90
11599;DHT22;5855;48.840;9.188;2022-07-03T04:59:15;17.20;99.90
11599;DHT22;5855;48.840;9.188;2022-07-03T05:01:42;17.20;99.90
11599;DHT22;5855;48.840;9.188;2022-07-03T05:04:11;17.30;99.90
11599;DHT22;5855;48.840;9.188;2022-07-03T05:06:37;17.30;99.90
11599;DHT22;5855;48.840;9.188;2022-07-03T05:09:04;17.40;99.90
11599;DHT22;5855;48.840;9.188;2022-07-03T05:11:31;17.50;99.90
11599;DHT22;5855;48.840;9.188;2022-07-03T05:13:58;17.60;99.90
11599;DHT22;5855;48.840;9.188;2022-07-03T05:16:25;17.70;99.90
11599;DHT22;5855;48.840;9.188;2022-07-03T05:18:52;17.70;99.90
11599;DHT22;5855;48.840;9.188;2022-07-03T05:21:20;17.80;99.90
11599;DHT22;5855;48.840;9.188;2022-07-03T05:23:47;17.90;99.90
11599;DHT22;5855;48.840;9.188;2022-07-03T05:26:14;18.00;99.90
11599;DHT22;5855;48.840;9.188;2022-07-03T05:28:41;18.10;99.90
11599;DHT22;5855;48.840;9.188;2022-07-03T05:31:08;18.20;99.90
11599;DHT22;5855;48.840;9.188;2022-07-03T05:33:34;18.20;99.90
11599;DHT22;5855;48.840;9.188;2022-07-03T05:36:01;18.30;99.90
11599;DHT22;5855;48.840;9.188;2022-07-03T05:38:30;18.40;99.90
11599;DHT22;5855;48.840;9.188;2022-07-03T05:41:23;18.50;99.90
11599;DHT22;5855;48.840;9.188;2022-07-03T05:43:50;18.70;99.90
11599;DHT22;5855;48.840;9.188;2022-07-03T05:46:16;18.80;99.90
11599;DHT22;5855;48.840;9.188;2022-07-03T05:48:43;18.90;99.90
11599;DHT22;5855;48.840;9.188;2022-07-03T05:51:10;19.00;99.90
11599;DHT22;5855;48.840;9.188;2022-07-03T05:53:38;19.20;99.90
11599;DHT22;5855;48.840;9.188;2022-07-03T05:56:05;19.30;99.90
11599;DHT22;5855;48.840;9.188;2022-07-03T05:58:32;19.40;99.90
11599;DHT22;5855;48.840;9.188;2022-07-03T06:00:59;19.50;99.90
11599;DHT22;5855;48.840;9.188;2022-07-03T06:03:26;19.60;99.90
11599;DHT22;5855;48.840;9.188;2022-07-03T06:05:52;19.70;99.90
11599;DHT22;5855;48.840;9.188;2022-07-03T06:08:19;19.80;99.90
11599;DHT22;5855;48.840;9.188;2022-07-03T06:10:47;19.80;99.90
11599;DHT22;5855;48.840;9.188;2022-07-03T06:13:14;19.90;99.90
11599;DHT22;5855;48.840;9.188;2022-07-03T06:15:41;20.10;99.90
11599;DHT22;5855;48.840;9.188;2022-07-03T06:18:08;20.10;99.90
11599;DHT22;5855;48.840;9.188;2022-07-03T06:20:35;20.20;99.90
11599;DHT22;5855;48.840;9.188;2022-07-03T06:23:01;20.30;99.90
11599;DHT22;5855;48.840;9.188;2022-07-03T06:25:28;20.40;99.90
11599;DHT22;5855;48.840;9.188;2022-07-03T06:27:56;20.50;99.90
11599;DHT22;5855;48.840;9.188;2022-07-03T06:30:23;20.60;99.90
11599;DHT22;5855;48.840;9.188;2022-07-03T06:32:50;20.70;99.90
11599;DHT22;5855;48.840;9.188;2022-07-03T06:35:17;20.80;99.90
11599;DHT22;5855;48.840;9.188;2022-07-03T06:37:44;21.00;99.90
11599;DHT22;5855;48.840;9.188;2022-07-03T06:40:11;21.10;99.90
11599;DHT22;5855;48.840;9.188;2022-07-03T06:42:38;21.30;99.90
11599;DHT22;5855;48.840;9.188;2022-07-03T06:45:07;21.40;99.90
11599;DHT22;5855;48.840;9.188;2022-07-03T06:47:37;21.60;99.90
11599;DHT22;5855;48.840;9.188;2022-07-03T06:50:05;21.70;99.90
11599;DHT22;5855;48.840;9.188;2022-07-03T06:52:32;21.70;99.90
11599;DHT22;5855;48.840;9.188;2022-07-03T06:54:59;21.80;99.90
11599;DHT22;5855;48.840;9.188;2022-07-03T06:57:25;21.90;99.90
11599;DHT22;5855;48.840;9.188;2022-07-03T06:59:52;22.00;99.90
11599;DHT22;5855;48.840;9.188;2022-07-03T07:02:20;22.10;99.90
11599;DHT22;5855;48.840;9.188;2022-07-03T07:04:47;22.20;99.90
11599;DHT22;5855;48.840;9.188;2022-07-03T07:07:14;22.30;99.90
11599;DHT22;5855;48.840;9.188;2022-07-03T07:09:41;22.40;99.90
11599;DHT22;5855;48.840;9.188;2022-07-03T07:12:08;22.60;99.90
11599;DHT22;5855;48.840;9.188;2022-07-03T07:14:35;22.70;99.90
11599;DHT22;5855;48.840;9.188;2022-07-03T07:17:03;22.90;99.90
11599;DHT22;5855;48.840;9.188;2022-07-03T07:19:31;23.00;99.90
11599;DHT22;5855;48.840;9.188;2022-07-03T07:21:58;23.10;99.90
11599;DHT22;5855;48.840;9.188;2022-07-03T07:24:26;23.30;99.90
11599;DHT22;5855;48.840;9.188;2022-07-03T07:26:53;23.50;99.90
11599;DHT22;5855;48.840;9.188;2022-07-03T07:29:21;23.60;99.90
11599;DHT22;5855;48.840;9.188;2022-07-03T07:31:47;23.80;99.90
11599;DHT22;5855;48.840;9.188;2022-07-03T07:34:14;23.90;99.90
11599;DHT22;5855;48.840;9.188;2022-07-03T07:36:42;24.00;99.90
11599;DHT22;5855;48.840;9.188;2022-07-03T07:39:09;24.10;99.90
11599;DHT22;5855;48.840;9.188;2022-07-03T07:41:36;24.30;99.90
11599;DHT22;5855;48.840;9.188;2022-07-03T07:44:04;24.40;99.90
11599;DHT22;5855;48.840;9.188;2022-07-03T07:46:31;24.60;99.90
11599;DHT22;5855;48.840;9.188;2022-07-03T07:48:58;24.80;99.90
11599;DHT22;5855;48.840;9.188;2022-07-03T07:51:25;24.90;99.90
11599;DHT22;5855;48.840;9.188;2022-07-03T07:53:53;25.00;99.90
11599;DHT22;5855;48.840;9.188;2022-07-03T07:56:23;25.30;99.90
11599;DHT22;5855;48.840;9.188;2022-07-03T07:58:49;25.50;99.90
11599;DHT22;5855;48.840;9.188;2022-07-03T08:01:17;25.70;99.90
11599;DHT22;5855;48.840;9.188;2022-07-03T08:04:01;25.80;99.90
11599;DHT22;5855;48.840;9.188;2022-07-03T08:06:45;26.00;99.90
11599;DHT22;5855;48.840;9.188;2022-07-03T08:09:13;26.20;99.90
11599;DHT22;5855;48.840;9.188;2022-07-03T08:11:40;26.40;99.90
11599;DHT22;5855;48.840;9.188;2022-07-03T08:14:07;26.50;99.90
11599;DHT22;5855;48.840;9.188;2022-07-03T08:16:36;26.70;99.90
11599;DHT22;5855;48.840;9.188;2022-07-03T08:19:04;26.80;99.90
11599;DHT22;5855;48.840;9.188;2022-07-03T08:21:31;26.90;99.90
11599;DHT22;5855;48.840;9.188;2022-07-03T08:23:58;27.20;99.90
11599;DHT22;5855;48.840;9.188;2022-07-03T08:26:27;27.50;99.90
11599;DHT22;5855;48.840;9.188;2022-07-03T08:28:53;27.50;99.90
11599;DHT22;5855;48.840;9.188;2022-07-03T08:31:20;27.60;99.90
11599;DHT22;5855;48.840;9.188;2022-07-03T08:33:47;27.70;99.90
11599;DHT22;5855;48.840;9.188;2022-07-03T08:36:14;27.70;95.30
11599;DHT22;5855;48.840;9.188;2022-07-03T08:38:41;27.90;93.50
11599;DHT22;5855;48.840;9.188;2022-07-03T08:41:08;27.80;92.10
11599;DHT22;5855;48.840;9.188;2022-07-03T08:43:39;28.00;90.40
11599;DHT22;5855;48.840;9.188;2022-07-03T08:46:08;28.20;88.20
11599;DHT22;5855;48.840;9.188;2022-07-03T08:48:37;28.00;90.70
11599;DHT22;5855;48.840;9.188;2022-07-03T08:51:04;27.60;90.60
11599;DHT22;5855;48.840;9.188;2022-07-03T08:53:31;27.70;90.30
11599;DHT22;5855;48.840;9.188;2022-07-03T08:55:58;27.70;87.80
11599;DHT22;5855;48.840;9.188;2022-07-03T08:58:25;27.80;88.30
11599;DHT22;5855;48.840;9.188;2022-07-03T09:00:58;27.80;88.80
11599;DHT22;5855;48.840;9.188;2022-07-03T09:03:25;28.10;88.60
11599;DHT22;5855;48.840;9.188;2022-07-03T09:05:52;27.90;86.80
11599;DHT22;5855;48.840;9.188;2022-07-03T09:08:21;27.60;85.40
11599;DHT22;5855;48.840;9.188;2022-07-03T09:10:49;27.80;87.10
11599;DHT22;5855;48.840;9.188;2022-07-03T09:13:16;28.10;84.70
11599;DHT22;5855;48.840;9.188;2022-07-03T09:15:43;28.20;86.80
11599;DHT22;5855;48.840;9.188;2022-07-03T09:18:11;28.30;83.70
11599;DHT22;5855;48.840;9.188;2022-07-03T09:20:40;28.40;84.20
11599;DHT22;5855;48.840;9.188;2022-07-03T09:23:10;28.70;85.50
11599;DHT22;5855;48.840;9.188;2022-07-03T09:25:50;28.70;84.30
11599;DHT22;5855;48.840;9.188;2022-07-03T09:28:19;28.70;81.40
11599;DHT22;5855;48.840;9.188;2022-07-03T09:30:56;28.20;82.10
11599;DHT22;5855;48.840;9.188;2022-07-03T09:33:24;28.30;80.90
11599;DHT22;5855;48.840;9.188;2022-07-03T09:35:53;28.70;79.30
11599;DHT22;5855;48.840;9.188;2022-07-03T09:38:20;29.20;78.60
11599;DHT22;5855;48.840;9.188;2022-07-03T09:40:48;29.50;77.80
11599;DHT22;5855;48.840;9.188;2022-07-03T09:43:15;29.90;79.00
11599;DHT22;5855;48.840;9.188;2022-07-03T09:45:50;29.30;77.80
11599;DHT22;5855;48.840;9.188;2022-07-03T09:48:29;29.00;80.10
11599;DHT22;5855;48.840;9.188;2022-07-03T09:51:16;28.80;77.10
11599;DHT22;5855;48.840;9.188;2022-07-03T09:53:55;28.70;80.40
11599;DHT22;5855;48.840;9.188;2022-07-03T09:56:23;29.00;78.40
11599;DHT22;5855;48.840;9.188;2022-07-03T09:59:17;29.10;80.30
11599;DHT22;5855;48.840;9.188;2022-07-03T10:01:45;29.00;81.10
11599;DHT22;5855;48.840;9.188;2022-07-03T10:04:18;29.20;78.60
11599;DHT22;5855;48.840;9.188;2022-07-03T10:06:53;29.00;77.20
11599;DHT22;5855;48.840;9.188;2022-07-03T10:09:23;29.10;78.60
11599;DHT22;5855;48.840;9.188;2022-07-03T10:11:50;29.20;78.60
11599;DHT22;5855;48.840;9.188;2022-07-03T10:14:19;29.30;77.90
11599;DHT22;5855;48.840;9.188;2022-07-03T10:16:46;29.20;78.70
11599;DHT22;5855;48.840;9.188;2022-07-03T10:19:17;29.40;76.30
11599;DHT22;5855;48.840;9.188;2022-07-03T10:21:50;29.10;78.40
11599;DHT22;5855;48.840;9.188;2022-07-03T10:24:17;29.30;77.90
11599;DHT22;5855;48.840;9.188;2022-07-03T10:26:44;29.50;76.40
11599;DHT22;5855;48.840;9.188;2022-07-03T10:29:14;29.60;75.80
11599;DHT22;5855;48.840;9.188;2022-07-03T10:31:44;29.90;76.20
11599;DHT22;5855;48.840;9.188;2022-07-03T10:34:17;30.10;74.80
11599;DHT22;5855;48.840;9.188;2022-07-03T10:36:47;30.60;72.50
11599;DHT22;5855;48.840;9.188;2022-07-03T10:39:22;31.00;71.60
11599;DHT22;5855;48.840;9.188;2022-07-03T10:41:54;31.10;71.20
11599;DHT22;5855;48.840;9.188;2022-07-03T10:44:50;30.80;71.40
11599;DHT22;5855;48.840;9.188;2022-07-03T10:47:40;30.80;71.00
11599;DHT22;5855;48.840;9.188;2022-07-03T10:50:09;30.70;70.30
11599;DHT22;5855;48.840;9.188;2022-07-03T10:52:38;31.20;75.00
11599;DHT22;5855;48.840;9.188;2022-07-03T10:55:09;31.70;74.40
11599;DHT22;5855;48.840;9.188;2022-07-03T10:57:39;32.10;72.30
11599;DHT22;5855;48.840;9.188;2022-07-03T11:00:15;32.80;72.70
11599;DHT22;5855;48.840;9.188;2022-07-03T11:02:44;33.20;69.50
11599;DHT22;5855;48.840;9.188;2022-07-03T11:05:21;33.30;68.20
11599;DHT22;5855;48.840;9.188;2022-07-03T11:08:18;33.50;66.00
11599;DHT22;5855;48.840;9.188;2022-07-03T11:10:45;33.40;65.20
11599;DHT22;5855;48.840;9.188;2022-07-03T11:13:32;33.60;64.60
11599;DHT22;5855;48.840;9.188;2022-07-03T11:15:58;34.10;65.40
11599;DHT22;5855;48.840;9.188;2022-07-03T11:18:28;33.20;65.20
11599;DHT22;5855;48.840;9.188;2022-07-03T11:21:23;33.60;65.20
11599;DHT22;5855;48.840;9.188;2022-07-03T11:24:34;34.10;63.30
11599;DHT22;5855;48.840;9.188;2022-07-03T11:27:20;34.80;61.50
11599;DHT22;5855;48.840;9.188;2022-07-03T11:29:54;35.30;60.20
11599;DHT22;5855;48.840;9.188;2022-07-03T11:32:43;35.90;58.50
11599;DHT22;5855;48.840;9.188;2022-07-03T11:35:45;36.30;57.10
11599;DHT22;5855;48.840;9.188;2022-07-03T11:38:20;36.50;56.30
11599;DHT22;5855;48.840;9.188;2022-07-03T11:40:51;37.20;53.30
11599;DHT22;5855;48.840;9.188;2022-07-03T11:43:18;37.80;53.80
11599;DHT22;5855;48.840;9.188;2022-07-03T11:45:46;38.20;51.30
11599;DHT22;5855;48.840;9.188;2022-07-03T11:48:16;38.70;49.10
11599;DHT22;5855;48.840;9.188;2022-07-03T11:50:45;38.70;48.40
11599;DHT22;5855;48.840;9.188;2022-07-03T11:53:21;39.30;47.10
11599;DHT22;5855;48.840;9.188;2022-07-03T11:55:51;39.40;45.30
11599;DHT22;5855;48.840;9.188;2022-07-03T11:58:18;39.60;46.50
11599;DHT22;5855;48.840;9.188;2022-07-03T12:00:45;40.00;44.50
11599;DHT22;5855;48.840;9.188;2022-07-03T12:03:21;39.20;42.70
11599;DHT22;5855;48.840;9.188;2022-07-03T12:05:56;39.40;43.50
11599;DHT22;5855;48.840;9.188;2022-07-03T12:08:27;39.80;43.10
11599;DHT22;5855;48.840;9.188;2022-07-03T12:10:59;39.90;42.10
11599;DHT22;5855;48.840;9.188;2022-07-03T12:13:29;40.00;41.10
11599;DHT22;5855;48.840;9.188;2022-07-03T12:16:05;40.20;40.80
11599;DHT22;5855;48.840;9.188;2022-07-03T12:18:43;40.40;40.60
11599;DHT22;5855;48.840;9.188;2022-07-03T12:21:10;41.40;39.60
11599;DHT22;5855;48.840;9.188;2022-07-03T12:23:43;42.20;40.10
11599;DHT22;5855;48.840;9.188;2022-07-03T12:26:10;42.70;37.20
11599;DHT22;5855;48.840;9.188;2022-07-03T12:28:37;43.20;35.70
11599;DHT22;5855;48.840;9.188;2022-07-03T12:31:04;43.70;33.30
11599;DHT22;5855;48.840;9.188;2022-07-03T12:33:32;43.90;32.70
11599;DHT22;5855;48.840;9.188;2022-07-03T12:36:05;44.20;32.00
11599;DHT22;5855;48.840;9.188;2022-07-03T12:38:32;44.60;31.60
11599;DHT22;5855;48.840;9.188;2022-07-03T12:41:05;44.60;30.00
11599;DHT22;5855;48.840;9.188;2022-07-03T12:43:39;44.70;30.50
11599;DHT22;5855;48.840;9.188;2022-07-03T12:46:16;44.40;30.00
11599;DHT22;5855;48.840;9.188;2022-07-03T12:48:47;44.60;29.60
11599;DHT22;5855;48.840;9.188;2022-07-03T12:51:15;43.50;30.10
11599;DHT22;5855;48.840;9.188;2022-07-03T12:53:42;44.40;29.80
11599;DHT22;5855;48.840;9.188;2022-07-03T12:56:11;44.70;29.70
11599;DHT22;5855;48.840;9.188;2022-07-03T12:58:39;45.50;29.40
11599;DHT22;5855;48.840;9.188;2022-07-03T13:01:25;46.00;28.60
11599;DHT22;5855;48.840;9.188;2022-07-03T13:03:52;46.20;27.20
11599;DHT22;5855;48.840;9.188;2022-07-03T13:06:20;46.50;27.00
11599;DHT22;5855;48.840;9.188;2022-07-03T13:08:53;47.30;26.70
11599;DHT22;5855;48.840;9.188;2022-07-03T13:11:30;47.90;26.40
11599;DHT22;5855;48.840;9.188;2022-07-03T13:14:08;48.60;25.30
11599;DHT22;5855;48.840;9.188;2022-07-03T13:16:41;49.20;23.90
11599;DHT22;5855;48.840;9.188;2022-07-03T13:19:09;49.60;24.20
11599;DHT22;5855;48.840;9.188;2022-07-03T13:21:36;49.60;23.50
11599;DHT22;5855;48.840;9.188;2022-07-03T13:24:04;49.80;23.30
11599;DHT22;5855;48.840;9.188;2022-07-03T13:26:33;50.00;22.50
11599;DHT22;5855;48.840;9.188;2022-07-03T13:29:00;49.80;22.80
11599;DHT22;5855;48.840;9.188;2022-07-03T13:31:29;50.30;22.70
11599;DHT22;5855;48.840;9.188;2022-07-03T13:33:56;50.80;22.50
11599;DHT22;5855;48.840;9.188;2022-07-03T13:36:24;50.30;21.70
11599;DHT22;5855;48.840;9.188;2022-07-03T13:38:54;49.20;22.30
11599;DHT22;5855;48.840;9.188;2022-07-03T13:41:21;48.10;23.00
11599;DHT22;5855;48.840;9.188;2022-07-03T13:43:50;47.80;23.30
11599;DHT22;5855;48.840;9.188;2022-07-03T13:46:18;47.70;23.20
11599;DHT22;5855;48.840;9.188;2022-07-03T13:48:47;48.10;23.30
11599;DHT22;5855;48.840;9.188;2022-07-03T13:51:14;48.70;22.90
11599;DHT22;5855;48.840;9.188;2022-07-03T13:53:41;48.50;22.80
11599;DHT22;5855;48.840;9.188;2022-07-03T13:56:08;48.30;23.00
11599;DHT22;5855;48.840;9.188;2022-07-03T13:58:35;47.80;22.70
11599;DHT22;5855;48.840;9.188;2022-07-03T14:01:03;47.40;23.10
11599;DHT22;5855;48.840;9.188;2022-07-03T14:03:30;46.50;23.30
11599;DHT22;5855;48.840;9.188;2022-07-03T14:05:57;46.00;23.80
11599;DHT22;5855;48.840;9.188;2022-07-03T14:08:24;46.60;23.90
11599;DHT22;5855;48.840;9.188;2022-07-03T14:10:51;46.90;23.70
11599;DHT22;5855;48.840;9.188;2022-07-03T14:13:18;47.10;23.80
11599;DHT22;5855;48.840;9.188;2022-07-03T14:15:44;46.90;23.40
11599;DHT22;5855;48.840;9.188;2022-07-03T14:18:13;46.30;23.50
11599;DHT22;5855;48.840;9.188;2022-07-03T14:20:39;46.20;23.70
11599;DHT22;5855;48.840;9.188;2022-07-03T14:23:06;46.00;24.00
11599;DHT22;5855;48.840;9.188;2022-07-03T14:25:33;46.10;23.90
11599;DHT22;5855;48.840;9.188;2022-07-03T14:28:00;46.60;23.50
11599;DHT22;5855;48.840;9.188;2022-07-03T14:30:48;46.70;23.30
11599;DHT22;5855;48.840;9.188;2022-07-03T14:33:34;46.40;24.10
11599;DHT22;5855;48.840;9.188;2022-07-03T14:36:01;46.20;23.60
11599;DHT22;5855;48.840;9.188;2022-07-03T14:38:28;45.50;23.80
11599;DHT22;5855;48.840;9.188;2022-07-03T14:40:55;45.30;24.90
11599;DHT22;5855;48.840;9.188;2022-07-03T14:43:22;44.90;24.20
11599;DHT22;5855;48.840;9.188;2022-07-03T14:45:49;45.00;24.90
11599;DHT22;5855;48.840;9.188;2022-07-03T14:48:16;44.90;24.10
11599;DHT22;5855;48.840;9.188;2022-07-03T14:50:44;44.80;24.40
11599;DHT22;5855;48.840;9.188;2022-07-03T14:53:11;45.20;24.20
11599;DHT22;5855;48.840;9.188;2022-07-03T14:55:40;45.40;24.20
11599;DHT22;5855;48.840;9.188;2022-07-03T14:58:26;45.30;24.10
11599;DHT22;5855;48.840;9.188;2022-07-03T15:00:53;45.20;24.60
11599;DHT22;5855;48.840;9.188;2022-07-03T15:03:27;45.30;24.20
11599;DHT22;5855;48.840;9.188;2022-07-03T15:05:57;45.00;24.90
11599;DHT22;5855;48.840;9.188;2022-07-03T15:08:46;44.60;24.80
11599;DHT22;5855;48.840;9.188;2022-07-03T15:11:19;44.10;24.50
11599;DHT22;5855;48.840;9.188;2022-07-03T15:14:03;44.10;25.10
11599;DHT22;5855;48.840;9.188;2022-07-03T15:16:32;43.50;25.40
11599;DHT22;5855;48.840;9.188;2022-07-03T15:19:00;43.60;25.70
11599;DHT22;5855;48.840;9.188;2022-07-03T15:21:30;43.70;24.90
11599;DHT22;5855;48.840;9.188;2022-07-03T15:24:00;43.60;25.40
11599;DHT22;5855;48.840;9.188;2022-07-03T15:26:29;43.40;25.20
11599;DHT22;5855;48.840;9.188;2022-07-03T15:28:58;43.10;25.10
11599;DHT22;5855;48.840;9.188;2022-07-03T15:31:26;43.40;24.90
11599;DHT22;5855;48.840;9.188;2022-07-03T15:33:54;43.40;24.90
11599;DHT22;5855;48.840;9.188;2022-07-03T15:36:24;43.10;24.90
11599;DHT22;5855;48.840;9.188;2022-07-03T15:39:01;42.70;25.20
11599;DHT22;5855;48.840;9.188;2022-07-03T15:41:37;42.70;25.60
11599;DHT22;5855;48.840;9.188;2022-07-03T15:44:18;43.00;25.60
11599;DHT22;5855;48.840;9.188;2022-07-03T15:46:55;43.50;24.80
11599;DHT22;5855;48.840;9.188;2022-07-03T15:49:27;43.40;24.40
11599;DHT22;5855;48.840;9.188;2022-07-03T15:52:09;43.20;24.60
11599;DHT22;5855;48.840;9.188;2022-07-03T15:54:44;42.90;24.30
11599;DHT22;5855;48.840;9.188;2022-07-03T15:57:18;42.80;24.90
11599;DHT22;5855;48.840;9.188;2022-07-03T15:59:51;42.90;24.80
11599;DHT22;5855;48.840;9.188;2022-07-03T16:02:26;42.90;24.30
11599;DHT22;5855;48.840;9.188;2022-07-03T16:05:05;42.40;24.50
11599;DHT22;5855;48.840;9.188;2022-07-03T16:07:36;42.40;25.20
11599;DHT22;5855;48.840;9.188;2022-07-03T16:10:07;43.10;25.20